sensor_id;sensor_type;location;lat;lon;timestamp;P1;durP1;ratioP1;P2;durP2;ratioP2
65583;SDS011;73032;43.592;1.458;2023-12-07T00:02:14;14.43;;;6.90;;
65583;SDS011;73032;43.592;1.458;2023-12-07T00:04:41;12.52;;;6.43;;
65583;SDS011;73032;43.592;1.458;2023-12-07T00:07:07;12.50;;;6.32;;
65583;SDS011;73032;43.592;1.458;2023-12-07T00:09:34;15.32;;;7.15;;
65583;SDS011;73032;43.592;1.458;2023-12-07T00:12:01;16.95;;;6.85;;
65583;SDS011;73032;43.592;1.458;2023-12-07T00:14:28;12.07;;;6.43;;
65583;SDS011;73032;43.592;1.458;2023-12-07T00:16:54;11.70;;;5.93;;
65583;SDS011;73032;43.592;1.458;2023-12-07T00:19:21;12.27;;;6.90;;
65583;SDS011;73032;43.592;1.458;2023-12-07T00:21:48;12.93;;;6.78;;
65583;SDS011;73032;43.592;1.458;2023-12-07T00:24:14;15.13;;;6.95;;
65583;SDS011;73032;43.592;1.458;2023-12-07T00:26:41;13.02;;;7.28;;
65583;SDS011;73032;43.592;1.458;2023-12-07T00:29:07;17.02;;;7.40;;
65583;SDS011;73032;43.592;1.458;2023-12-07T00:31:34;15.93;;;7.03;;
65583;SDS011;73032;43.592;1.458;2023-12-07T00:34:01;12.88;;;6.15;;
65583;SDS011;73032;43.592;1.458;2023-12-07T00:36:27;17.02;;;7.53;;
65583;SDS011;73032;43.592;1.458;2023-12-07T00:38:54;12.30;;;6.05;;
65583;SDS011;73032;43.592;1.458;2023-12-07T00:41:21;12.85;;;6.35;;
65583;SDS011;73032;43.592;1.458;2023-12-07T00:43:48;10.50;;;5.43;;
65583;SDS011;73032;43.592;1.458;2023-12-07T00:46:15;11.60;;;5.55;;
65583;SDS011;73032;43.592;1.458;2023-12-07T00:48:41;11.38;;;5.65;;
65583;SDS011;73032;43.592;1.458;2023-12-07T00:51:08;11.07;;;5.93;;
65583;SDS011;73032;43.592;1.458;2023-12-07T00:53:36;14.88;;;6.18;;
65583;SDS011;73032;43.592;1.458;2023-12-07T00:56:03;13.82;;;6.00;;
65583;SDS011;73032;43.592;1.458;2023-12-07T00:58:30;12.27;;;5.60;;
65583;SDS011;73032;43.592;1.458;2023-12-07T01:00:57;11.40;;;5.30;;
65583;SDS011;73032;43.592;1.458;2023-12-07T01:03:24;12.45;;;5.45;;
65583;SDS011;73032;43.592;1.458;2023-12-07T01:05:50;10.75;;;5.53;;
65583;SDS011;73032;43.592;1.458;2023-12-07T01:08:17;11.55;;;5.65;;
65583;SDS011;73032;43.592;1.458;2023-12-07T01:10:44;14.27;;;5.97;;
65583;SDS011;73032;43.592;1.458;2023-12-07T01:13:11;12.95;;;6.38;;
65583;SDS011;73032;43.592;1.458;2023-12-07T01:15:37;13.07;;;5.75;;
65583;SDS011;73032;43.592;1.458;2023-12-07T01:18:04;13.15;;;5.63;;
65583;SDS011;73032;43.592;1.458;2023-12-07T01:20:31;11.43;;;5.70;;
65583;SDS011;73032;43.592;1.458;2023-12-07T01:22:58;9.50;;;5.13;;
65583;SDS011;73032;43.592;1.458;2023-12-07T01:25:24;12.63;;;5.68;;
65583;SDS011;73032;43.592;1.458;2023-12-07T01:27:51;12.70;;;5.90;;
65583;SDS011;73032;43.592;1.458;2023-12-07T01:30:18;15.93;;;6.55;;
65583;SDS011;73032;43.592;1.458;2023-12-07T01:32:45;11.60;;;5.05;;
65583;SDS011;73032;43.592;1.458;2023-12-07T01:35:12;12.18;;;5.13;;
65583;SDS011;73032;43.592;1.458;2023-12-07T01:37:38;10.25;;;5.13;;
65583;SDS011;73032;43.592;1.458;2023-12-07T01:40:05;10.05;;;5.72;;
65583;SDS011;73032;43.592;1.458;2023-12-07T01:42:36;10.57;;;5.53;;
65583;SDS011;73032;43.592;1.458;2023-12-07T01:45:04;11.07;;;5.70;;
65583;SDS011;73032;43.592;1.458;2023-12-07T01:47:32;10.70;;;5.40;;
65583;SDS011;73032;43.592;1.458;2023-12-07T01:50:01;11.90;;;5.30;;
65583;SDS011;73032;43.592;1.458;2023-12-07T01:52:31;10.18;;;5.53;;
65583;SDS011;73032;43.592;1.458;2023-12-07T01:54:58;9.13;;;4.95;;
65583;SDS011;73032;43.592;1.458;2023-12-07T01:57:25;10.35;;;5.60;;
65583;SDS011;73032;43.592;1.458;2023-12-07T01:59:53;12.20;;;5.53;;
65583;SDS011;73032;43.592;1.458;2023-12-07T02:02:20;14.13;;;5.90;;
65583;SDS011;73032;43.592;1.458;2023-12-07T02:04:47;12.27;;;5.38;;
65583;SDS011;73032;43.592;1.458;2023-12-07T02:07:14;11.48;;;5.57;;
65583;SDS011;73032;43.592;1.458;2023-12-07T02:09:40;17.73;;;6.60;;
65583;SDS011;73032;43.592;1.458;2023-12-07T02:12:08;12.68;;;5.40;;
65583;SDS011;73032;43.592;1.458;2023-12-07T02:14:35;9.57;;;5.07;;
65583;SDS011;73032;43.592;1.458;2023-12-07T02:17:06;13.35;;;5.65;;
65583;SDS011;73032;43.592;1.458;2023-12-07T02:19:46;9.82;;;4.78;;
65583;SDS011;73032;43.592;1.458;2023-12-07T02:22:21;9.13;;;4.47;;
65583;SDS011;73032;43.592;1.458;2023-12-07T02:25:07;9.20;;;5.07;;
65583;SDS011;73032;43.592;1.458;2023-12-07T02:27:36;9.40;;;5.25;;
65583;SDS011;73032;43.592;1.458;2023-12-07T02:30:04;11.18;;;5.15;;
65583;SDS011;73032;43.592;1.458;2023-12-07T02:32:32;10.68;;;5.10;;
65583;SDS011;73032;43.592;1.458;2023-12-07T02:34:59;9.45;;;5.15;;
65583;SDS011;73032;43.592;1.458;2023-12-07T02:37:27;13.13;;;5.68;;
65583;SDS011;73032;43.592;1.458;2023-12-07T02:39:59;9.80;;;4.85;;
65583;SDS011;73032;43.592;1.458;2023-12-07T02:42:27;11.25;;;5.28;;
65583;SDS011;73032;43.592;1.458;2023-12-07T02:44:54;11.98;;;5.38;;
65583;SDS011;73032;43.592;1.458;2023-12-07T02:47:21;11.82;;;5.43;;
65583;SDS011;73032;43.592;1.458;2023-12-07T02:49:48;9.70;;;5.22;;
65583;SDS011;73032;43.592;1.458;2023-12-07T02:52:14;9.38;;;4.95;;
65583;SDS011;73032;43.592;1.458;2023-12-07T02:54:41;11.10;;;4.82;;
65583;SDS011;73032;43.592;1.458;2023-12-07T02:57:08;8.85;;;4.72;;
65583;SDS011;73032;43.592;1.458;2023-12-07T02:59:35;10.43;;;5.07;;
65583;SDS011;73032;43.592;1.458;2023-12-07T03:02:02;8.88;;;4.55;;
65583;SDS011;73032;43.592;1.458;2023-12-07T03:04:28;10.82;;;5.22;;
65583;SDS011;73032;43.592;1.458;2023-12-07T03:06:55;10.98;;;5.43;;
65583;SDS011;73032;43.592;1.458;2023-12-07T03:09:22;11.02;;;5.07;;
65583;SDS011;73032;43.592;1.458;2023-12-07T03:11:48;8.93;;;5.35;;
65583;SDS011;73032;43.592;1.458;2023-12-07T03:14:15;11.45;;;5.55;;
65583;SDS011;73032;43.592;1.458;2023-12-07T03:16:42;12.35;;;5.93;;
65583;SDS011;73032;43.592;1.458;2023-12-07T03:19:08;9.82;;;4.68;;
65583;SDS011;73032;43.592;1.458;2023-12-07T03:21:38;11.45;;;4.65;;
65583;SDS011;73032;43.592;1.458;2023-12-07T03:24:07;11.73;;;4.90;;
65583;SDS011;73032;43.592;1.458;2023-12-07T03:26:37;10.50;;;4.97;;
65583;SDS011;73032;43.592;1.458;2023-12-07T03:29:04;8.15;;;4.25;;
65583;SDS011;73032;43.592;1.458;2023-12-07T03:31:30;9.05;;;4.78;;
65583;SDS011;73032;43.592;1.458;2023-12-07T03:33:57;10.70;;;4.93;;
65583;SDS011;73032;43.592;1.458;2023-12-07T03:36:25;9.98;;;4.90;;
65583;SDS011;73032;43.592;1.458;2023-12-07T03:38:53;8.82;;;4.72;;
65583;SDS011;73032;43.592;1.458;2023-12-07T03:41:19;11.23;;;5.07;;
65583;SDS011;73032;43.592;1.458;2023-12-07T03:43:46;11.85;;;4.80;;
65583;SDS011;73032;43.592;1.458;2023-12-07T03:46:13;11.07;;;4.00;;
65583;SDS011;73032;43.592;1.458;2023-12-07T03:48:39;9.85;;;4.15;;
65583;SDS011;73032;43.592;1.458;2023-12-07T03:51:06;10.13;;;4.47;;
65583;SDS011;73032;43.592;1.458;2023-12-07T03:53:33;12.00;;;4.68;;
65583;SDS011;73032;43.592;1.458;2023-12-07T03:55:59;8.65;;;4.28;;
65583;SDS011;73032;43.592;1.458;2023-12-07T03:58:26;8.18;;;3.70;;
65583;SDS011;73032;43.592;1.458;2023-12-07T04:00:53;10.77;;;4.53;;
65583;SDS011;73032;43.592;1.458;2023-12-07T04:03:20;8.70;;;4.40;;
65583;SDS011;73032;43.592;1.458;2023-12-07T04:05:46;7.30;;;3.85;;
65583;SDS011;73032;43.592;1.458;2023-12-07T04:08:14;8.68;;;4.00;;
65583;SDS011;73032;43.592;1.458;2023-12-07T04:10:40;9.32;;;4.30;;
65583;SDS011;73032;43.592;1.458;2023-12-07T04:13:07;10.70;;;4.50;;
65583;SDS011;73032;43.592;1.458;2023-12-07T04:15:34;11.38;;;4.90;;
65583;SDS011;73032;43.592;1.458;2023-12-07T04:18:00;9.13;;;4.72;;
65583;SDS011;73032;43.592;1.458;2023-12-07T04:20:27;9.57;;;4.55;;
65583;SDS011;73032;43.592;1.458;2023-12-07T04:22:55;9.20;;;4.75;;
65583;SDS011;73032;43.592;1.458;2023-12-07T04:25:21;10.50;;;4.45;;
65583;SDS011;73032;43.592;1.458;2023-12-07T04:27:49;8.70;;;4.32;;
65583;SDS011;73032;43.592;1.458;2023-12-07T04:30:15;8.32;;;4.35;;
65583;SDS011;73032;43.592;1.458;2023-12-07T04:32:42;9.07;;;4.20;;
65583;SDS011;73032;43.592;1.458;2023-12-07T04:35:09;11.63;;;4.30;;
65583;SDS011;73032;43.592;1.458;2023-12-07T04:37:35;8.82;;;4.10;;
65583;SDS011;73032;43.592;1.458;2023-12-07T04:40:02;7.47;;;3.92;;
65583;SDS011;73032;43.592;1.458;2023-12-07T04:42:31;9.25;;;4.38;;
65583;SDS011;73032;43.592;1.458;2023-12-07T04:44:58;10.07;;;4.03;;
65583;SDS011;73032;43.592;1.458;2023-12-07T04:47:25;10.05;;;4.28;;
65583;SDS011;73032;43.592;1.458;2023-12-07T04:49:51;8.88;;;3.97;;
65583;SDS011;73032;43.592;1.458;2023-12-07T04:52:18;9.25;;;3.97;;
65583;SDS011;73032;43.592;1.458;2023-12-07T04:54:45;7.95;;;4.07;;
65583;SDS011;73032;43.592;1.458;2023-12-07T04:57:12;10.85;;;5.10;;
65583;SDS011;73032;43.592;1.458;2023-12-07T04:59:39;9.55;;;3.72;;
65583;SDS011;73032;43.592;1.458;2023-12-07T05:02:06;10.27;;;4.47;;
65583;SDS011;73032;43.592;1.458;2023-12-07T05:04:33;7.78;;;3.47;;
65583;SDS011;73032;43.592;1.458;2023-12-07T05:06:59;8.23;;;4.25;;
65583;SDS011;73032;43.592;1.458;2023-12-07T05:09:28;10.77;;;4.32;;
65583;SDS011;73032;43.592;1.458;2023-12-07T05:11:57;8.23;;;3.92;;
65583;SDS011;73032;43.592;1.458;2023-12-07T05:14:24;9.93;;;4.32;;
65583;SDS011;73032;43.592;1.458;2023-12-07T05:16:51;6.53;;;3.58;;
65583;SDS011;73032;43.592;1.458;2023-12-07T05:19:19;6.47;;;3.15;;
65583;SDS011;73032;43.592;1.458;2023-12-07T05:21:47;7.78;;;3.53;;
65583;SDS011;73032;43.592;1.458;2023-12-07T05:24:15;6.57;;;3.10;;
65583;SDS011;73032;43.592;1.458;2023-12-07T05:26:42;4.63;;;2.63;;
65583;SDS011;73032;43.592;1.458;2023-12-07T05:29:10;6.80;;;2.53;;
65583;SDS011;73032;43.592;1.458;2023-12-07T05:31:37;8.23;;;2.40;;
65583;SDS011;73032;43.592;1.458;2023-12-07T05:34:04;5.13;;;2.30;;
65583;SDS011;73032;43.592;1.458;2023-12-07T05:36:31;3.95;;;2.33;;
65583;SDS011;73032;43.592;1.458;2023-12-07T05:38:58;4.93;;;2.22;;
65583;SDS011;73032;43.592;1.458;2023-12-07T05:41:25;7.32;;;2.30;;
65583;SDS011;73032;43.592;1.458;2023-12-07T05:43:52;8.18;;;2.60;;
65583;SDS011;73032;43.592;1.458;2023-12-07T05:46:19;4.10;;;2.22;;
65583;SDS011;73032;43.592;1.458;2023-12-07T05:48:46;6.18;;;2.22;;
65583;SDS011;73032;43.592;1.458;2023-12-07T05:51:13;6.35;;;2.83;;
65583;SDS011;73032;43.592;1.458;2023-12-07T05:53:43;6.13;;;2.55;;
65583;SDS011;73032;43.592;1.458;2023-12-07T05:56:10;4.85;;;2.20;;
65583;SDS011;73032;43.592;1.458;2023-12-07T05:58:40;4.90;;;2.17;;
65583;SDS011;73032;43.592;1.458;2023-12-07T06:01:07;4.15;;;1.90;;
65583;SDS011;73032;43.592;1.458;2023-12-07T06:03:34;6.43;;;2.70;;
65583;SDS011;73032;43.592;1.458;2023-12-07T06:06:01;5.05;;;2.13;;
65583;SDS011;73032;43.592;1.458;2023-12-07T06:08:28;5.35;;;1.95;;
65583;SDS011;73032;43.592;1.458;2023-12-07T06:10:55;3.03;;;1.65;;
65583;SDS011;73032;43.592;1.458;2023-12-07T06:13:23;5.88;;;2.00;;
65583;SDS011;73032;43.592;1.458;2023-12-07T06:15:50;5.82;;;2.28;;
65583;SDS011;73032;43.592;1.458;2023-12-07T06:18:17;4.40;;;2.05;;
65583;SDS011;73032;43.592;1.458;2023-12-07T06:20:47;5.07;;;2.23;;
65583;SDS011;73032;43.592;1.458;2023-12-07T06:23:13;5.32;;;2.10;;
65583;SDS011;73032;43.592;1.458;2023-12-07T06:25:40;3.97;;;1.60;;
65583;SDS011;73032;43.592;1.458;2023-12-07T06:28:07;5.15;;;1.85;;
65583;SDS011;73032;43.592;1.458;2023-12-07T06:30:34;6.55;;;2.08;;
65583;SDS011;73032;43.592;1.458;2023-12-07T06:33:01;6.30;;;2.15;;
65583;SDS011;73032;43.592;1.458;2023-12-07T06:35:27;6.45;;;3.05;;
65583;SDS011;73032;43.592;1.458;2023-12-07T06:37:54;7.07;;;2.53;;
65583;SDS011;73032;43.592;1.458;2023-12-07T06:40:21;6.95;;;3.13;;
65583;SDS011;73032;43.592;1.458;2023-12-07T06:42:48;5.30;;;2.30;;
65583;SDS011;73032;43.592;1.458;2023-12-07T06:45:15;5.82;;;3.10;;
65583;SDS011;73032;43.592;1.458;2023-12-07T06:47:42;7.28;;;2.88;;
65583;SDS011;73032;43.592;1.458;2023-12-07T06:50:09;7.07;;;3.17;;
65583;SDS011;73032;43.592;1.458;2023-12-07T06:52:36;8.93;;;4.10;;
65583;SDS011;73032;43.592;1.458;2023-12-07T06:55:04;8.82;;;3.30;;
65583;SDS011;73032;43.592;1.458;2023-12-07T06:57:31;8.05;;;3.60;;
65583;SDS011;73032;43.592;1.458;2023-12-07T06:59:58;5.82;;;2.55;;
65583;SDS011;73032;43.592;1.458;2023-12-07T07:02:25;11.70;;;3.47;;
65583;SDS011;73032;43.592;1.458;2023-12-07T07:04:52;6.78;;;3.35;;
65583;SDS011;73032;43.592;1.458;2023-12-07T07:07:19;7.15;;;3.30;;
65583;SDS011;73032;43.592;1.458;2023-12-07T07:09:45;8.40;;;3.42;;
65583;SDS011;73032;43.592;1.458;2023-12-07T07:12:12;5.95;;;2.58;;
65583;SDS011;73032;43.592;1.458;2023-12-07T07:14:39;5.18;;;2.30;;
65583;SDS011;73032;43.592;1.458;2023-12-07T07:17:06;3.03;;;1.88;;
65583;SDS011;73032;43.592;1.458;2023-12-07T07:19:33;5.55;;;2.17;;
65583;SDS011;73032;43.592;1.458;2023-12-07T07:21:59;3.40;;;1.70;;
65583;SDS011;73032;43.592;1.458;2023-12-07T07:24:26;5.28;;;1.90;;
65583;SDS011;73032;43.592;1.458;2023-12-07T07:26:54;3.60;;;1.65;;
65583;SDS011;73032;43.592;1.458;2023-12-07T07:29:21;2.50;;;1.45;;
65583;SDS011;73032;43.592;1.458;2023-12-07T07:31:47;3.72;;;1.38;;
65583;SDS011;73032;43.592;1.458;2023-12-07T07:34:14;4.40;;;1.65;;
65583;SDS011;73032;43.592;1.458;2023-12-07T07:36:41;7.75;;;2.30;;
65583;SDS011;73032;43.592;1.458;2023-12-07T07:39:08;3.67;;;1.65;;
65583;SDS011;73032;43.592;1.458;2023-12-07T07:41:35;4.53;;;1.77;;
65583;SDS011;73032;43.592;1.458;2023-12-07T07:44:02;4.25;;;1.77;;
65583;SDS011;73032;43.592;1.458;2023-12-07T07:46:30;6.15;;;1.60;;
65583;SDS011;73032;43.592;1.458;2023-12-07T07:48:57;4.97;;;2.00;;
65583;SDS011;73032;43.592;1.458;2023-12-07T07:51:24;3.58;;;1.45;;
65583;SDS011;73032;43.592;1.458;2023-12-07T07:53:50;4.07;;;1.77;;
65583;SDS011;73032;43.592;1.458;2023-12-07T07:56:17;3.47;;;1.48;;
65583;SDS011;73032;43.592;1.458;2023-12-07T07:58:44;2.67;;;1.20;;
65583;SDS011;73032;43.592;1.458;2023-12-07T08:01:10;2.65;;;1.30;;
65583;SDS011;73032;43.592;1.458;2023-12-07T08:06:08;3.20;;;1.20;;
65583;SDS011;73032;43.592;1.458;2023-12-07T08:08:35;3.28;;;1.50;;
65583;SDS011;73032;43.592;1.458;2023-12-07T08:11:01;4.50;;;1.38;;
65583;SDS011;73032;43.592;1.458;2023-12-07T08:13:28;5.03;;;1.50;;
65583;SDS011;73032;43.592;1.458;2023-12-07T08:15:55;2.85;;;1.45;;
65583;SDS011;73032;43.592;1.458;2023-12-07T08:18:24;3.45;;;1.23;;
65583;SDS011;73032;43.592;1.458;2023-12-07T08:20:51;4.03;;;1.33;;
65583;SDS011;73032;43.592;1.458;2023-12-07T08:23:18;3.33;;;1.42;;
65583;SDS011;73032;43.592;1.458;2023-12-07T08:25:44;2.85;;;1.30;;
65583;SDS011;73032;43.592;1.458;2023-12-07T08:28:11;3.72;;;1.80;;
65583;SDS011;73032;43.592;1.458;2023-12-07T08:30:38;3.65;;;1.30;;
65583;SDS011;73032;43.592;1.458;2023-12-07T08:33:05;4.13;;;1.70;;
65583;SDS011;73032;43.592;1.458;2023-12-07T08:35:31;2.50;;;1.33;;
65583;SDS011;73032;43.592;1.458;2023-12-07T08:37:58;5.15;;;1.48;;
65583;SDS011;73032;43.592;1.458;2023-12-07T08:40:25;2.70;;;1.40;;
65583;SDS011;73032;43.592;1.458;2023-12-07T08:42:51;5.93;;;1.65;;
65583;SDS011;73032;43.592;1.458;2023-12-07T08:45:21;5.45;;;1.63;;
65583;SDS011;73032;43.592;1.458;2023-12-07T08:47:47;5.93;;;1.83;;
65583;SDS011;73032;43.592;1.458;2023-12-07T08:50:14;3.17;;;1.33;;
65583;SDS011;73032;43.592;1.458;2023-12-07T08:52:44;3.20;;;1.40;;
65583;SDS011;73032;43.592;1.458;2023-12-07T08:55:21;4.47;;;1.60;;
65583;SDS011;73032;43.592;1.458;2023-12-07T08:57:48;3.80;;;1.40;;
65583;SDS011;73032;43.592;1.458;2023-12-07T09:00:15;2.05;;;1.25;;
65583;SDS011;73032;43.592;1.458;2023-12-07T09:02:50;4.00;;;1.20;;
65583;SDS011;73032;43.592;1.458;2023-12-07T09:05:18;2.90;;;1.40;;
65583;SDS011;73032;43.592;1.458;2023-12-07T09:07:44;1.85;;;1.13;;
65583;SDS011;73032;43.592;1.458;2023-12-07T09:10:13;4.15;;;1.52;;
65583;SDS011;73032;43.592;1.458;2023-12-07T09:12:40;2.25;;;1.15;;
65583;SDS011;73032;43.592;1.458;2023-12-07T09:15:07;3.55;;;1.20;;
65583;SDS011;73032;43.592;1.458;2023-12-07T09:17:37;5.55;;;1.13;;
65583;SDS011;73032;43.592;1.458;2023-12-07T09:20:06;2.22;;;1.00;;
65583;SDS011;73032;43.592;1.458;2023-12-07T09:22:44;3.08;;;1.25;;
65583;SDS011;73032;43.592;1.458;2023-12-07T09:25:13;2.78;;;1.42;;
65583;SDS011;73032;43.592;1.458;2023-12-07T09:27:40;4.53;;;1.80;;
65583;SDS011;73032;43.592;1.458;2023-12-07T09:30:07;3.28;;;1.40;;
65583;SDS011;73032;43.592;1.458;2023-12-07T09:32:38;2.47;;;1.20;;
65583;SDS011;73032;43.592;1.458;2023-12-07T09:35:06;3.13;;;1.35;;
65583;SDS011;73032;43.592;1.458;2023-12-07T09:37:34;2.28;;;1.23;;
65583;SDS011;73032;43.592;1.458;2023-12-07T09:40:01;2.20;;;1.10;;
65583;SDS011;73032;43.592;1.458;2023-12-07T09:42:30;2.15;;;1.10;;
65583;SDS011;73032;43.592;1.458;2023-12-07T09:45:02;2.28;;;1.10;;
65583;SDS011;73032;43.592;1.458;2023-12-07T09:47:31;3.88;;;1.10;;
65583;SDS011;73032;43.592;1.458;2023-12-07T09:50:04;2.25;;;0.90;;
65583;SDS011;73032;43.592;1.458;2023-12-07T09:52:32;2.00;;;1.10;;
65583;SDS011;73032;43.592;1.458;2023-12-07T09:54:59;2.20;;;1.10;;
65583;SDS011;73032;43.592;1.458;2023-12-07T09:57:27;2.15;;;1.08;;
65583;SDS011;73032;43.592;1.458;2023-12-07T09:59:57;2.95;;;1.10;;
65583;SDS011;73032;43.592;1.458;2023-12-07T10:02:23;2.03;;;0.90;;
65583;SDS011;73032;43.592;1.458;2023-12-07T10:05:25;4.90;;;1.20;;
65583;SDS011;73032;43.592;1.458;2023-12-07T10:07:45;3.42;;;1.10;;
65583;SDS011;73032;43.592;1.458;2023-12-07T10:10:14;3.83;;;1.50;;
65583;SDS011;73032;43.592;1.458;2023-12-07T10:12:46;2.55;;;1.27;;
65583;SDS011;73032;43.592;1.458;2023-12-07T10:15:21;1.52;;;1.02;;
65583;SDS011;73032;43.592;1.458;2023-12-07T10:17:49;4.93;;;1.40;;
65583;SDS011;73032;43.592;1.458;2023-12-07T10:20:18;3.20;;;1.30;;
65583;SDS011;73032;43.592;1.458;2023-12-07T10:25:40;4.25;;;1.10;;
65583;SDS011;73032;43.592;1.458;2023-12-07T10:28:09;2.45;;;1.33;;
65583;SDS011;73032;43.592;1.458;2023-12-07T10:30:39;4.50;;;1.30;;
65583;SDS011;73032;43.592;1.458;2023-12-07T10:33:09;2.28;;;1.10;;
65583;SDS011;73032;43.592;1.458;2023-12-07T10:35:39;2.75;;;1.02;;
65583;SDS011;73032;43.592;1.458;2023-12-07T10:38:07;3.55;;;1.20;;
65583;SDS011;73032;43.592;1.458;2023-12-07T10:40:34;2.97;;;0.95;;
65583;SDS011;73032;43.592;1.458;2023-12-07T10:43:04;3.25;;;1.10;;
65583;SDS011;73032;43.592;1.458;2023-12-07T10:45:32;2.60;;;1.10;;
65583;SDS011;73032;43.592;1.458;2023-12-07T10:48:02;2.03;;;0.90;;
65583;SDS011;73032;43.592;1.458;2023-12-07T10:50:41;2.95;;;1.20;;
65583;SDS011;73032;43.592;1.458;2023-12-07T10:53:55;6.03;;;1.45;;
65583;SDS011;73032;43.592;1.458;2023-12-07T10:56:09;4.65;;;1.30;;
65583;SDS011;73032;43.592;1.458;2023-12-07T10:58:38;2.05;;;1.00;;
65583;SDS011;73032;43.592;1.458;2023-12-07T11:01:07;2.53;;;1.15;;
65583;SDS011;73032;43.592;1.458;2023-12-07T11:03:35;2.25;;;0.90;;
65583;SDS011;73032;43.592;1.458;2023-12-07T11:06:03;2.05;;;0.98;;
65583;SDS011;73032;43.592;1.458;2023-12-07T11:11:24;1.58;;;1.13;;
65583;SDS011;73032;43.592;1.458;2023-12-07T11:13:58;1.73;;;0.90;;
65583;SDS011;73032;43.592;1.458;2023-12-07T11:19:01;1.95;;;1.02;;
65583;SDS011;73032;43.592;1.458;2023-12-07T11:21:28;1.67;;;1.00;;
65583;SDS011;73032;43.592;1.458;2023-12-07T11:23:55;1.90;;;0.98;;
65583;SDS011;73032;43.592;1.458;2023-12-07T11:26:24;2.72;;;0.93;;
65583;SDS011;73032;43.592;1.458;2023-12-07T11:28:54;2.22;;;1.00;;
65583;SDS011;73032;43.592;1.458;2023-12-07T11:31:21;2.72;;;1.17;;
65583;SDS011;73032;43.592;1.458;2023-12-07T11:33:48;2.42;;;1.00;;
65583;SDS011;73032;43.592;1.458;2023-12-07T11:36:15;3.03;;;1.13;;
65583;SDS011;73032;43.592;1.458;2023-12-07T11:41:44;2.63;;;1.20;;
65583;SDS011;73032;43.592;1.458;2023-12-07T11:44:11;2.25;;;1.15;;
65583;SDS011;73032;43.592;1.458;2023-12-07T11:46:38;2.17;;;1.05;;
65583;SDS011;73032;43.592;1.458;2023-12-07T11:49:05;3.42;;;1.20;;
65583;SDS011;73032;43.592;1.458;2023-12-07T11:51:53;2.53;;;1.10;;
65583;SDS011;73032;43.592;1.458;2023-12-07T11:54:21;2.50;;;1.30;;
65583;SDS011;73032;43.592;1.458;2023-12-07T11:56:55;2.03;;;1.13;;
65583;SDS011;73032;43.592;1.458;2023-12-07T11:59:22;2.40;;;1.00;;
65583;SDS011;73032;43.592;1.458;2023-12-07T12:01:59;1.85;;;0.93;;
65583;SDS011;73032;43.592;1.458;2023-12-07T12:04:29;2.30;;;1.20;;
65583;SDS011;73032;43.592;1.458;2023-12-07T12:06:56;3.95;;;1.25;;
65583;SDS011;73032;43.592;1.458;2023-12-07T12:09:26;1.80;;;0.80;;
65583;SDS011;73032;43.592;1.458;2023-12-07T12:11:58;3.30;;;0.90;;
65583;SDS011;73032;43.592;1.458;2023-12-07T12:14:27;2.40;;;1.10;;
65583;SDS011;73032;43.592;1.458;2023-12-07T12:16:55;2.70;;;1.20;;
65583;SDS011;73032;43.592;1.458;2023-12-07T12:19:23;2.10;;;1.00;;
65583;SDS011;73032;43.592;1.458;2023-12-07T12:22:00;1.42;;;1.00;;
65583;SDS011;73032;43.592;1.458;2023-12-07T12:24:32;4.15;;;1.08;;
65583;SDS011;73032;43.592;1.458;2023-12-07T12:27:00;3.00;;;0.88;;
65583;SDS011;73032;43.592;1.458;2023-12-07T12:29:27;1.92;;;0.90;;
65583;SDS011;73032;43.592;1.458;2023-12-07T12:32:00;1.35;;;0.75;;
65583;SDS011;73032;43.592;1.458;2023-12-07T12:34:29;1.90;;;0.77;;
65583;SDS011;73032;43.592;1.458;2023-12-07T12:36:56;1.35;;;0.80;;
65583;SDS011;73032;43.592;1.458;2023-12-07T12:39:27;2.10;;;0.75;;
65583;SDS011;73032;43.592;1.458;2023-12-07T12:41:59;2.45;;;0.90;;
65583;SDS011;73032;43.592;1.458;2023-12-07T12:44:27;3.15;;;0.82;;
65583;SDS011;73032;43.592;1.458;2023-12-07T12:47:04;2.15;;;1.10;;
65583;SDS011;73032;43.592;1.458;2023-12-07T12:49:35;1.67;;;0.90;;
65583;SDS011;73032;43.592;1.458;2023-12-07T12:52:03;3.47;;;1.00;;
65583;SDS011;73032;43.592;1.458;2023-12-07T12:54:31;2.90;;;0.90;;
65583;SDS011;73032;43.592;1.458;2023-12-07T12:56:59;2.13;;;1.00;;
65583;SDS011;73032;43.592;1.458;2023-12-07T12:59:26;2.70;;;0.98;;
65583;SDS011;73032;43.592;1.458;2023-12-07T13:01:53;2.53;;;0.90;;
65583;SDS011;73032;43.592;1.458;2023-12-07T13:04:19;1.95;;;1.13;;
65583;SDS011;73032;43.592;1.458;2023-12-07T13:06:47;2.05;;;1.00;;
65583;SDS011;73032;43.592;1.458;2023-12-07T13:09:14;1.15;;;0.80;;
65583;SDS011;73032;43.592;1.458;2023-12-07T13:11:43;1.67;;;0.90;;
65583;SDS011;73032;43.592;1.458;2023-12-07T13:14:10;3.42;;;0.82;;
65583;SDS011;73032;43.592;1.458;2023-12-07T13:16:36;3.08;;;0.93;;
65583;SDS011;73032;43.592;1.458;2023-12-07T13:19:04;1.60;;;0.80;;
65583;SDS011;73032;43.592;1.458;2023-12-07T13:21:31;2.50;;;1.13;;
65583;SDS011;73032;43.592;1.458;2023-12-07T13:23:58;2.05;;;0.80;;
65583;SDS011;73032;43.592;1.458;2023-12-07T13:26:28;1.92;;;0.80;;
65583;SDS011;73032;43.592;1.458;2023-12-07T13:28:54;3.20;;;1.10;;
65583;SDS011;73032;43.592;1.458;2023-12-07T13:31:22;2.25;;;1.10;;
65583;SDS011;73032;43.592;1.458;2023-12-07T13:33:49;1.40;;;0.90;;
65583;SDS011;73032;43.592;1.458;2023-12-07T13:36:22;2.53;;;1.00;;
65583;SDS011;73032;43.592;1.458;2023-12-07T13:38:52;2.85;;;1.13;;
65583;SDS011;73032;43.592;1.458;2023-12-07T13:41:19;3.05;;;1.00;;
65583;SDS011;73032;43.592;1.458;2023-12-07T13:43:46;3.85;;;1.17;;
65583;SDS011;73032;43.592;1.458;2023-12-07T13:46:16;2.15;;;0.70;;
65583;SDS011;73032;43.592;1.458;2023-12-07T13:48:43;2.58;;;1.00;;
65583;SDS011;73032;43.592;1.458;2023-12-07T13:51:10;4.20;;;1.15;;
65583;SDS011;73032;43.592;1.458;2023-12-07T13:53:36;1.70;;;0.90;;
65583;SDS011;73032;43.592;1.458;2023-12-07T13:56:04;1.63;;;0.93;;
65583;SDS011;73032;43.592;1.458;2023-12-07T13:58:31;1.67;;;1.10;;
65583;SDS011;73032;43.592;1.458;2023-12-07T14:00:58;3.40;;;1.33;;
65583;SDS011;73032;43.592;1.458;2023-12-07T14:03:25;2.63;;;0.93;;
65583;SDS011;73032;43.592;1.458;2023-12-07T14:05:52;2.25;;;0.93;;
65583;SDS011;73032;43.592;1.458;2023-12-07T14:08:18;2.10;;;0.98;;
65583;SDS011;73032;43.592;1.458;2023-12-07T14:10:48;3.15;;;1.08;;
65583;SDS011;73032;43.592;1.458;2023-12-07T14:13:15;5.00;;;1.13;;
65583;SDS011;73032;43.592;1.458;2023-12-07T14:15:44;5.22;;;1.42;;
65583;SDS011;73032;43.592;1.458;2023-12-07T14:18:11;5.88;;;1.20;;
65583;SDS011;73032;43.592;1.458;2023-12-07T14:20:40;2.92;;;1.17;;
65583;SDS011;73032;43.592;1.458;2023-12-07T14:23:27;2.13;;;1.10;;
65583;SDS011;73032;43.592;1.458;2023-12-07T14:25:54;2.47;;;0.90;;
65583;SDS011;73032;43.592;1.458;2023-12-07T14:28:27;4.78;;;1.02;;
65583;SDS011;73032;43.592;1.458;2023-12-07T14:30:57;2.80;;;1.10;;
65583;SDS011;73032;43.592;1.458;2023-12-07T14:33:25;4.75;;;1.20;;
65583;SDS011;73032;43.592;1.458;2023-12-07T14:35:53;2.30;;;1.05;;
65583;SDS011;73032;43.592;1.458;2023-12-07T14:38:20;3.17;;;1.13;;
65583;SDS011;73032;43.592;1.458;2023-12-07T14:40:47;1.40;;;0.88;;
65583;SDS011;73032;43.592;1.458;2023-12-07T14:43:15;2.70;;;1.15;;
65583;SDS011;73032;43.592;1.458;2023-12-07T14:45:42;5.15;;;0.95;;
65583;SDS011;73032;43.592;1.458;2023-12-07T14:48:09;2.53;;;1.23;;
65583;SDS011;73032;43.592;1.458;2023-12-07T14:50:37;2.72;;;1.00;;
65583;SDS011;73032;43.592;1.458;2023-12-07T14:53:04;5.18;;;1.17;;
65583;SDS011;73032;43.592;1.458;2023-12-07T14:55:31;2.28;;;0.90;;
65583;SDS011;73032;43.592;1.458;2023-12-07T14:57:57;1.77;;;1.00;;
65583;SDS011;73032;43.592;1.458;2023-12-07T15:00:24;2.45;;;1.20;;
65583;SDS011;73032;43.592;1.458;2023-12-07T15:02:52;1.95;;;1.10;;
65583;SDS011;73032;43.592;1.458;2023-12-07T15:05:19;2.00;;;1.20;;